Time;durP1;ratioP1;P1;durP2;ratioP2;P2;SDS_P1;SDS_P2;PMS_P1;PMS_P2;Temp;Humidity;BMP_temperature;BMP_pressure;BME280_temperature;BME280_humidity;BME280_pressure;Samples;Min_cycle;Max_cycle;Signal;HPM_P1;HPM_P2
2020/12/12 00:00:29;;;;;;;3.75;3.45;;;2.90;99.90;;;;;;5108789;28;20183;-71
2020/12/12 00:02:55;;;;;;;0.95;0.95;;;2.90;99.90;;;;;;5109223;28;20193;-74
2020/12/12 00:05:21;;;;;;;0.40;0.40;;;2.90;99.90;;;;;;5111499;28;20198;-73
2020/12/12 00:07:47;;;;;;;0.43;0.43;;;2.90;99.90;;;;;;5111823;28;20187;-74
2020/12/12 00:10:13;;;;;;;1.90;1.80;;;2.80;99.90;;;;;;5113099;28;20148;-74
2020/12/12 00:12:39;;;;;;;0.30;0.30;;;2.80;99.90;;;;;;5113036;28;20532;-74
2020/12/12 00:15:05;;;;;;;0.20;0.20;;;2.80;99.90;;;;;;5112920;28;20681;-74
2020/12/12 00:17:31;;;;;;;0.47;0.47;;;2.80;99.90;;;;;;5111806;28;20163;-74
2020/12/12 00:19:57;;;;;;;0.63;0.63;;;2.90;99.90;;;;;;5108004;28;20175;-74
2020/12/12 00:22:23;;;;;;;1.10;0.85;;;2.80;99.90;;;;;;5112352;28;20211;-74
2020/12/12 00:24:49;;;;;;;3.25;2.63;;;2.80;99.90;;;;;;5111933;28;20795;-74
2020/12/12 00:27:15;;;;;;;0.98;0.93;;;2.80;99.90;;;;;;5112571;28;20194;-73
2020/12/12 00:29:41;;;;;;;0.75;0.75;;;2.80;99.90;;;;;;5112799;28;20160;-74
2020/12/12 00:32:07;;;;;;;0.50;0.50;;;2.80;99.90;;;;;;5112888;28;20244;-73
2020/12/12 00:34:32;;;;;;;1.58;1.50;;;2.80;99.90;;;;;;5112586;28;20184;-73
2020/12/12 00:36:58;;;;;;;2.50;2.40;;;2.80;99.90;;;;;;5112651;28;20225;-74
2020/12/12 00:39:24;;;;;;;1.67;1.58;;;2.80;99.90;;;;;;5112610;28;20565;-74
2020/12/12 00:41:50;;;;;;;2.38;1.95;;;2.80;99.90;;;;;;5111151;28;20266;-75
2020/12/12 00:44:17;;;;;;;3.40;2.65;;;2.70;99.90;;;;;;5111207;28;20216;-74
2020/12/12 00:46:44;;;;;;;3.42;1.85;;;2.70;99.90;;;;;;5111048;28;20240;-74
2020/12/12 00:49:12;;;;;;;1.48;1.30;;;2.70;99.90;;;;;;5112296;28;20220;-74
2020/12/12 00:51:39;;;;;;;0.77;0.77;;;2.70;99.90;;;;;;5112533;28;20628;-74
2020/12/12 00:54:05;;;;;;;2.30;2.15;;;2.70;99.90;;;;;;5111024;28;20611;-74
2020/12/12 00:56:31;;;;;;;0.63;0.63;;;2.70;99.90;;;;;;5112196;28;20215;-74
2020/12/12 00:58:57;;;;;;;1.58;1.45;;;2.70;99.90;;;;;;5095546;28;20186;-74
2020/12/12 01:01:23;;;;;;;0.38;0.38;;;2.70;99.90;;;;;;5100746;28;20187;-74
2020/12/12 01:03:49;;;;;;;1.60;1.60;;;2.80;99.90;;;;;;5091711;28;20160;-74
2020/12/12 01:06:16;;;;;;;0.20;0.20;;;2.80;99.90;;;;;;5090439;28;20297;-74
2020/12/12 01:08:45;;;;;;;0.75;0.75;;;2.80;99.90;;;;;;5091617;28;20188;-74
2020/12/12 01:11:13;;;;;;;0.75;0.75;;;2.80;99.90;;;;;;5091716;28;20176;-74
2020/12/12 01:13:40;;;;;;;1.08;1.08;;;2.70;99.90;;;;;;5091473;28;20181;-74
2020/12/12 01:16:09;;;;;;;1.17;1.17;;;2.60;99.90;;;;;;5089623;28;20199;-74
2020/12/12 01:18:36;;;;;;;1.50;1.40;;;2.70;99.90;;;;;;5091511;28;20569;-74
2020/12/12 01:21:03;;;;;;;2.13;2.03;;;2.70;99.90;;;;;;5086879;28;20172;-74
2020/12/12 01:23:31;;;;;;;0.30;0.30;;;2.70;99.90;;;;;;5091172;28;20168;-74
2020/12/12 01:25:56;;;;;;;2.92;2.75;;;2.70;99.90;;;;;;5090151;28;20227;-74
2020/12/12 01:28:23;;;;;;;1.73;1.45;;;2.70;99.90;;;;;;5091272;28;20214;-73
2020/12/12 01:30:53;;;;;;;4.47;1.55;;;2.60;99.90;;;;;;5091364;28;20148;-74
2020/12/12 01:33:20;;;;;;;1.25;1.25;;;2.60;99.90;;;;;;5091334;28;20220;-74
2020/12/12 01:35:47;;;;;;;0.75;0.75;;;2.60;99.90;;;;;;5089828;28;20196;-74
2020/12/12 01:38:14;;;;;;;5.25;1.08;;;2.60;99.90;;;;;;5091092;28;20180;-73
2020/12/12 01:40:41;;;;;;;1.42;1.42;;;2.70;99.90;;;;;;5090922;28;20331;-74
2020/12/12 01:43:11;;;;;;;1.10;1.10;;;2.60;99.90;;;;;;5091130;28;20167;-74
2020/12/12 01:45:38;;;;;;;2.08;2.00;;;2.60;99.90;;;;;;5091010;28;20187;-73
2020/12/12 01:48:07;;;;;;;1.08;1.08;;;2.60;99.90;;;;;;5089654;28;20195;-74
2020/12/12 01:50:33;;;;;;;2.65;2.40;;;2.60;99.90;;;;;;5089629;28;20168;-74
2020/12/12 01:52:59;;;;;;;0.45;0.45;;;2.50;99.90;;;;;;5090908;28;20160;-74
2020/12/12 01:55:26;;;;;;;0.65;0.65;;;2.60;99.90;;;;;;5090848;28;20194;-74
2020/12/12 01:57:54;;;;;;;1.58;1.08;;;2.50;99.90;;;;;;5090784;28;20562;-74
2020/12/12 02:00:21;;;;;;;2.17;2.08;;;2.60;99.90;;;;;;5089085;28;20175;-74
2020/12/12 02:02:49;;;;;;;1.52;1.52;;;2.50;99.90;;;;;;5105876;28;20183;-74
2020/12/12 02:05:42;;;;;;;1.63;1.52;;;2.60;99.90;;;;;;5110763;28;20189;-73
2020/12/12 02:08:14;;;;;;;1.42;1.42;;;2.60;99.90;;;;;;5109378;28;20191;-73
2020/12/12 02:10:46;;;;;;;1.75;1.75;;;2.60;99.90;;;;;;5110835;28;20182;-74
2020/12/12 02:13:14;;;;;;;2.08;1.98;;;2.60;99.90;;;;;;5110778;28;20219;-73
2020/12/12 02:15:41;;;;;;;2.45;2.35;;;2.60;99.90;;;;;;5110690;28;20190;-73
2020/12/12 02:18:18;;;;;;;1.75;1.70;;;2.60;99.90;;;;;;5110713;28;20182;-73
2020/12/12 02:20:59;;;;;;;1.35;1.30;;;2.60;99.90;;;;;;5110737;28;20166;-74
2020/12/12 02:23:25;;;;;;;4.13;1.77;;;2.70;99.90;;;;;;5102186;28;20175;-73
2020/12/12 02:25:52;;;;;;;0.30;0.30;;;2.70;99.90;;;;;;5106859;28;20203;-73
2020/12/12 02:28:25;;;;;;;1.35;1.25;;;2.70;99.90;;;;;;5107040;28;20195;-73
2020/12/12 02:30:51;;;;;;;0.52;0.52;;;2.70;99.90;;;;;;5110564;28;20151;-75
2020/12/12 02:33:18;;;;;;;1.95;1.85;;;2.70;99.90;;;;;;5110510;28;20163;-76
2020/12/12 02:35:44;;;;;;;1.55;1.45;;;2.70;99.90;;;;;;5108948;28;20194;-76
2020/12/12 02:38:10;;;;;;;1.35;1.35;;;2.70;99.90;;;;;;5108997;28;20167;-75
2020/12/12 02:40:36;;;;;;;0.20;0.20;;;2.70;99.90;;;;;;5109974;28;20235;-75
2020/12/12 02:43:02;;;;;;;0.68;0.68;;;2.70;99.90;;;;;;5108863;28;20177;-75
2020/12/12 02:45:28;;;;;;;4.82;3.38;;;2.80;99.90;;;;;;5108684;28;20202;-75
2020/12/12 02:47:54;;;;;;;1.20;1.20;;;2.70;99.90;;;;;;5110080;28;20187;-75
2020/12/12 02:50:29;;;;;;;1.85;1.10;;;2.70;99.90;;;;;;5108854;28;20166;-75
2020/12/12 02:52:55;;;;;;;0.93;0.93;;;2.70;99.90;;;;;;5110090;28;20155;-74
2020/12/12 02:55:22;;;;;;;0.73;0.73;;;2.80;99.90;;;;;;5109960;28;20254;-74
2020/12/12 02:57:48;;;;;;;1.20;1.20;;;2.70;99.90;;;;;;5110217;28;20571;-75
2020/12/12 03:00:17;;;;;;;2.95;1.60;;;2.70;99.90;;;;;;5108687;28;20178;-75
2020/12/12 03:02:43;;;;;;;0.52;0.52;;;2.60;99.90;;;;;;5109965;28;20162;-74
2020/12/12 03:05:09;;;;;;;0.88;0.88;;;2.60;99.90;;;;;;5108537;28;20234;-75
2020/12/12 03:07:35;;;;;;;2.25;1.52;;;2.60;99.90;;;;;;5109830;28;20191;-75
2020/12/12 03:10:05;;;;;;;0.55;0.55;;;2.60;99.90;;;;;;5109772;28;20156;-74
2020/12/12 03:12:35;;;;;;;0.30;0.30;;;2.50;99.90;;;;;;5109726;28;20191;-75
2020/12/12 03:15:03;;;;;;;0.20;0.20;;;2.50;99.90;;;;;;5109779;28;20179;-75
2020/12/12 03:17:29;;;;;;;2.10;1.98;;;2.60;99.90;;;;;;5108402;28;20171;-74
2020/12/12 03:19:55;;;;;;;1.42;1.33;;;2.60;99.90;;;;;;5109642;28;20528;-75
2020/12/12 03:22:21;;;;;;;0.75;0.75;;;2.50;99.90;;;;;;5109607;28;20214;-75
2020/12/12 03:24:47;;;;;;;2.38;2.28;;;2.50;99.90;;;;;;5109549;28;20163;-75
2020/12/12 03:27:14;;;;;;;0.43;0.43;;;2.50;99.90;;;;;;5109493;28;20193;-75
2020/12/12 03:29:40;;;;;;;1.42;1.33;;;2.50;99.90;;;;;;5109533;28;20162;-75
2020/12/12 03:32:11;;;;;;;1.13;1.13;;;2.50;99.90;;;;;;5109638;28;20179;-75
2020/12/12 03:34:38;;;;;;;0.82;0.82;;;2.50;99.90;;;;;;5107870;28;20167;-74
2020/12/12 03:37:06;;;;;;;2.17;1.00;;;2.50;99.90;;;;;;5107543;28;20199;-75
2020/12/12 03:39:32;;;;;;;2.20;1.98;;;2.60;99.90;;;;;;5107984;28;20186;-75
2020/12/12 03:41:58;;;;;;;3.90;3.60;;;2.60;99.90;;;;;;5107956;28;20339;-75
2020/12/12 03:44:24;;;;;;;1.02;1.02;;;2.50;99.90;;;;;;5109318;28;20166;-75
2020/12/12 03:46:50;;;;;;;0.77;0.77;;;2.60;99.90;;;;;;5109168;28;20187;-75
2020/12/12 03:49:17;;;;;;;1.48;1.48;;;2.50;99.90;;;;;;5109197;28;20251;-75
2020/12/12 03:51:42;;;;;;;2.85;2.70;;;2.60;99.90;;;;;;5107976;28;20167;-75
2020/12/12 03:54:08;;;;;;;1.33;1.13;;;2.70;99.90;;;;;;5109050;28;20190;-75
2020/12/12 03:56:34;;;;;;;1.08;0.80;;;2.60;99.90;;;;;;5108857;28;20220;-75
2020/12/12 03:59:00;;;;;;;1.20;1.20;;;2.60;99.90;;;;;;5107645;28;20660;-75
2020/12/12 04:01:26;;;;;;;1.15;1.15;;;2.60;99.90;;;;;;5109177;28;20170;-75
2020/12/12 04:03:52;;;;;;;1.30;1.30;;;2.50;99.90;;;;;;5107806;28;20167;-75
2020/12/12 04:06:18;;;;;;;2.85;2.72;;;2.60;99.90;;;;;;5108985;28;20226;-75
2020/12/12 04:08:44;;;;;;;2.20;1.98;;;2.60;99.90;;;;;;5108946;28;20198;-75
2020/12/12 04:11:10;;;;;;;0.80;0.77;;;2.60;99.90;;;;;;5108847;28;20494;-74
2020/12/12 04:13:36;;;;;;;0.30;0.30;;;2.60;99.90;;;;;;5108979;28;20155;-75
2020/12/12 04:16:03;;;;;;;0.63;0.63;;;2.60;99.90;;;;;;5107545;28;20236;-74
2020/12/12 04:18:29;;;;;;;0.57;0.57;;;2.50;99.90;;;;;;5108758;28;20197;-75
2020/12/12 04:20:55;;;;;;;0.63;0.63;;;2.50;99.90;;;;;;5107716;28;20191;-75
2020/12/12 04:23:21;;;;;;;1.10;1.10;;;2.40;99.90;;;;;;5109016;28;20164;-75
2020/12/12 04:25:47;;;;;;;2.63;2.47;;;2.50;99.90;;;;;;5107505;28;20199;-75
2020/12/12 04:28:13;;;;;;;0.55;0.55;;;2.50;99.90;;;;;;5107447;28;20234;-75
2020/12/12 04:30:38;;;;;;;0.43;0.43;;;2.60;99.90;;;;;;5108902;28;20274;-75
2020/12/12 04:33:04;;;;;;;1.67;1.60;;;2.60;99.90;;;;;;5108868;28;20159;-75
2020/12/12 04:35:30;;;;;;;1.25;1.15;;;2.60;99.90;;;;;;5108818;28;20247;-75
2020/12/12 04:37:56;;;;;;;1.17;1.08;;;2.60;99.90;;;;;;5107563;28;20243;-75
2020/12/12 04:40:23;;;;;;;0.90;0.90;;;2.60;99.90;;;;;;5108633;28;20215;-75
2020/12/12 04:42:49;;;;;;;0.77;0.77;;;2.60;99.90;;;;;;5108788;28;20176;-75
2020/12/12 04:45:20;;;;;;;0.32;0.32;;;2.60;99.90;;;;;;5108744;28;20244;-75
2020/12/12 04:47:50;;;;;;;0.73;0.73;;;2.60;99.90;;;;;;5108744;28;20202;-75
2020/12/12 04:50:17;;;;;;;3.42;2.60;;;2.60;99.90;;;;;;5110647;28;20148;-75
2020/12/12 04:52:44;;;;;;;1.13;1.13;;;2.70;99.90;;;;;;5112439;28;20167;-75
2020/12/12 04:55:11;;;;;;;1.48;1.13;;;2.70;99.90;;;;;;5112368;28;20247;-75
2020/12/12 04:57:38;;;;;;;0.98;0.98;;;2.60;99.90;;;;;;5112189;28;20168;-75
2020/12/12 05:00:13;;;;;;;2.50;2.40;;;2.70;99.90;;;;;;5112190;28;20156;-75
2020/12/12 05:02:40;;;;;;;1.35;1.25;;;2.60;99.90;;;;;;5110800;28;20178;-75
2020/12/12 05:05:07;;;;;;;1.90;1.80;;;2.60;99.90;;;;;;5112157;28;20191;-74
2020/12/12 05:07:34;;;;;;;1.48;1.48;;;2.60;99.90;;;;;;5112149;28;20187;-75
2020/12/12 05:10:01;;;;;;;2.15;2.03;;;2.60;99.90;;;;;;5112147;28;20159;-75
2020/12/12 05:12:27;;;;;;;0.20;0.20;;;2.60;99.90;;;;;;5111573;28;20227;-75
2020/12/12 05:14:53;;;;;;;0.85;0.85;;;2.70;99.90;;;;;;5111901;28;20195;-75
2020/12/12 05:17:20;;;;;;;2.20;0.55;;;2.60;99.90;;;;;;5110841;28;20170;-75
2020/12/12 05:19:48;;;;;;;0.65;0.65;;;2.60;99.90;;;;;;5110584;28;20167;-75
2020/12/12 05:22:16;;;;;;;1.13;0.47;;;2.70;99.90;;;;;;5110692;28;20199;-76
2020/12/12 05:24:42;;;;;;;2.35;2.00;;;2.70;99.90;;;;;;5110726;28;20200;-75
2020/12/12 05:27:09;;;;;;;0.70;0.70;;;2.70;99.90;;;;;;5111510;28;20155;-75
2020/12/12 05:29:36;;;;;;;1.05;1.05;;;2.70;99.90;;;;;;5110383;28;20227;-75
2020/12/12 05:32:03;;;;;;;1.00;1.00;;;2.70;99.90;;;;;;5111729;28;20155;-75
2020/12/12 05:34:30;;;;;;;0.50;0.50;;;2.70;99.90;;;;;;5111570;28;20159;-75
2020/12/12 05:36:56;;;;;;;1.05;0.98;;;2.70;99.90;;;;;;5111512;28;20190;-75
2020/12/12 05:39:23;;;;;;;2.42;2.33;;;2.70;99.90;;;;;;5110187;28;20172;-75
2020/12/12 05:41:49;;;;;;;0.13;0.13;;;2.70;99.90;;;;;;5111102;28;20215;-75
2020/12/12 05:44:18;;;;;;;2.38;2.28;;;2.70;99.90;;;;;;5110355;28;20194;-75
2020/12/12 05:46:46;;;;;;;1.23;1.20;;;2.80;99.90;;;;;;5109889;28;20201;-75
2020/12/12 05:49:12;;;;;;;0.47;0.47;;;2.70;99.90;;;;;;5109843;28;20196;-75
2020/12/12 05:51:40;;;;;;;1.95;1.85;;;2.70;99.90;;;;;;5109902;28;20160;-75
2020/12/12 05:54:07;;;;;;;1.83;1.75;;;2.70;99.90;;;;;;5111219;28;20162;-75
2020/12/12 05:56:34;;;;;;;0.63;0.63;;;2.70;99.90;;;;;;5110999;28;20179;-75
2020/12/12 05:59:00;;;;;;;1.42;1.42;;;2.60;99.90;;;;;;5111168;28;20502;-75
2020/12/12 06:01:28;;;;;;;0.57;0.57;;;2.60;99.90;;;;;;5110870;28;20160;-75
2020/12/12 06:03:54;;;;;;;1.70;1.67;;;2.60;99.90;;;;;;5109779;28;20175;-75
2020/12/12 06:06:25;;;;;;;0.93;0.93;;;2.70;99.90;;;;;;5110833;28;20199;-75
2020/12/12 06:09:10;;;;;;;1.60;1.50;;;2.70;99.90;;;;;;5110828;28;20194;-75
2020/12/12 06:11:44;;;;;;;0.98;0.98;;;2.70;99.90;;;;;;5110873;28;20632;-74
2020/12/12 06:14:11;;;;;;;2.08;1.98;;;2.80;99.90;;;;;;5110786;28;20162;-75
2020/12/12 06:16:39;;;;;;;0.82;0.80;;;2.80;99.90;;;;;;5110791;28;20187;-75
2020/12/12 06:19:09;;;;;;;2.22;0.98;;;2.80;99.90;;;;;;5110705;28;20163;-75
2020/12/12 06:21:46;;;;;;;2.30;2.15;;;2.80;99.90;;;;;;5110560;28;20170;-75
2020/12/12 06:24:15;;;;;;;0.47;0.40;;;2.80;99.90;;;;;;5110709;28;20155;-75
2020/12/12 06:26:59;;;;;;;3.55;2.33;;;2.80;99.90;;;;;;5109240;28;20205;-75
2020/12/12 06:29:32;;;;;;;0.68;0.65;;;2.70;99.90;;;;;;5110296;28;20187;-75
2020/12/12 06:31:59;;;;;;;3.20;2.42;;;2.70;99.90;;;;;;5110502;28;20222;-75
2020/12/12 06:34:48;;;;;;;2.92;1.52;;;2.80;99.90;;;;;;5110242;28;20152;-75
2020/12/12 06:37:24;;;;;;;1.42;1.42;;;2.80;99.90;;;;;;5110361;28;20156;-75
2020/12/12 06:39:50;;;;;;;1.60;1.55;;;2.80;99.90;;;;;;5108804;28;20208;-75
2020/12/12 06:42:33;;;;;;;0.30;0.30;;;2.80;99.90;;;;;;5108910;28;20175;-75
2020/12/12 06:45:03;;;;;;;0.63;0.63;;;2.70;99.90;;;;;;5108803;28;20320;-75
2020/12/12 06:47:41;;;;;;;1.75;1.48;;;2.70;99.90;;;;;;5110139;28;20194;-75
2020/12/12 06:50:14;;;;;;;1.30;1.27;;;2.70;99.90;;;;;;5110136;28;20158;-75
2020/12/12 06:52:42;;;;;;;0.80;0.73;;;2.80;99.90;;;;;;5110123;28;20160;-75
2020/12/12 06:55:10;;;;;;;1.00;1.00;;;2.80;99.90;;;;;;5110036;28;20187;-75
2020/12/12 06:57:47;;;;;;;0.25;0.25;;;2.90;99.90;;;;;;5110040;28;20610;-75
2020/12/12 07:00:26;;;;;;;2.00;1.92;;;2.90;99.90;;;;;;5108542;28;20163;-75
2020/12/12 07:03:01;;;;;;;0.47;0.47;;;2.90;99.90;;;;;;5109837;28;20162;-75
2020/12/12 07:05:36;;;;;;;3.17;1.95;;;2.90;99.90;;;;;;5108347;28;20201;-75
2020/12/12 07:08:04;;;;;;;1.17;1.17;;;2.90;99.90;;;;;;5109728;28;20190;-75
2020/12/12 07:10:34;;;;;;;2.05;1.15;;;2.90;99.90;;;;;;5108234;28;20193;-75
2020/12/12 07:13:02;;;;;;;0.93;0.77;;;2.90;99.90;;;;;;5107716;28;20159;-75
2020/12/12 07:15:37;;;;;;;2.28;2.13;;;2.90;99.90;;;;;;5109683;28;20683;-75
2020/12/12 07:18:12;;;;;;;0.30;0.30;;;2.90;99.90;;;;;;5109734;28;20174;-75
2020/12/12 07:20:43;;;;;;;1.60;1.58;;;2.90;99.90;;;;;;5109429;28;20616;-75
2020/12/12 07:23:09;;;;;;;1.30;1.30;;;2.90;99.90;;;;;;5109677;28;20161;-75
2020/12/12 07:25:36;;;;;;;0.95;0.95;;;2.90;99.90;;;;;;5109520;28;20222;-75
2020/12/12 07:28:04;;;;;;;2.97;2.78;;;2.90;99.90;;;;;;5109232;28;20217;-74
2020/12/12 07:30:30;;;;;;;0.55;0.55;;;3.00;99.90;;;;;;5109412;28;20154;-75
2020/12/12 07:32:56;;;;;;;3.53;3.10;;;2.90;99.90;;;;;;5108192;28;20174;-75
2020/12/12 07:35:22;;;;;;;0.98;0.98;;;2.90;99.90;;;;;;5109383;28;20248;-74
2020/12/12 07:37:48;;;;;;;1.17;1.17;;;2.90;99.90;;;;;;5109510;28;20163;-75
2020/12/12 07:40:14;;;;;;;1.80;1.70;;;3.00;99.90;;;;;;5109188;28;20272;-75
2020/12/12 07:42:41;;;;;;;1.30;1.30;;;3.10;99.90;;;;;;5109103;28;20171;-75
2020/12/12 07:47:37;;;;;;;0.82;0.82;;;3.10;99.90;;;;;;5109103;28;20183;-75
2020/12/12 07:50:06;;;;;;;0.30;0.30;;;3.10;99.90;;;;;;5108056;28;20223;-75
2020/12/12 07:52:32;;;;;;;0.88;0.88;;;3.20;99.90;;;;;;5108956;28;20155;-75
2020/12/12 07:55:10;;;;;;;0.20;0.20;;;3.10;99.90;;;;;;5108937;28;20276;-75
2020/12/12 07:57:44;;;;;;;0.40;0.40;;;3.20;99.90;;;;;;5109123;28;20151;-75
2020/12/12 08:00:12;;;;;;;0.75;0.75;;;3.30;99.90;;;;;;5108973;28;20163;-75
2020/12/12 08:02:39;;;;;;;0.70;0.70;;;3.40;99.90;;;;;;5109080;28;20155;-75
2020/12/12 08:05:07;;;;;;;0.10;0.10;;;3.30;99.90;;;;;;5108929;28;20201;-75
2020/12/12 08:07:34;;;;;;;4.40;0.98;;;3.30;99.90;;;;;;5107578;28;20195;-75
2020/12/12 08:10:03;;;;;;;0.70;0.70;;;3.40;99.90;;;;;;5109146;28;20211;-75
2020/12/12 08:12:32;;;;;;;1.23;1.15;;;3.40;99.90;;;;;;5108443;28;20159;-75
2020/12/12 08:15:27;;;;;;;2.05;1.88;;;3.40;99.90;;;;;;5108921;28;20195;-75
2020/12/12 08:17:53;;;;;;;1.33;1.33;;;3.40;99.90;;;;;;5109384;28;20204;-75
2020/12/12 08:20:25;;;;;;;0.15;0.15;;;3.20;99.90;;;;;;5098126;28;20179;-75
2020/12/12 08:22:52;;;;;;;3.42;3.15;;;3.30;99.90;;;;;;5104780;28;20178;-75
2020/12/12 08:25:19;;;;;;;1.48;1.35;;;3.20;99.90;;;;;;5092299;28;20247;-73
2020/12/12 08:27:45;;;;;;;0.55;0.55;;;3.20;99.90;;;;;;5098965;28;20195;-74
2020/12/12 08:30:12;;;;;;;1.60;1.58;;;3.20;99.90;;;;;;5111284;28;20188;-74
2020/12/12 08:32:41;;;;;;;1.90;1.85;;;3.20;99.90;;;;;;5098865;28;20186;-74
2020/12/12 08:35:22;;;;;;;0.52;0.52;;;3.20;99.90;;;;;;5110292;28;20215;-76
2020/12/12 08:38:03;;;;;;;2.03;1.60;;;3.30;99.90;;;;;;5104183;28;20201;-75
2020/12/12 08:40:42;;;;;;;1.83;1.73;;;3.30;99.90;;;;;;5090617;28;20239;-76
2020/12/12 08:43:10;;;;;;;0.20;0.20;;;3.30;99.90;;;;;;5092174;28;20183;-75
2020/12/12 08:45:38;;;;;;;1.27;1.27;;;3.40;99.90;;;;;;5092049;28;20251;-75
2020/12/12 08:48:13;;;;;;;0.80;0.80;;;3.30;99.90;;;;;;5091919;28;20265;-76
2020/12/12 08:50:46;;;;;;;1.63;1.52;;;3.30;99.90;;;;;;5091847;28;20144;-75
2020/12/12 08:53:29;;;;;;;1.27;1.27;;;3.30;99.90;;;;;;5092551;28;20172;-75
2020/12/12 08:56:05;;;;;;;1.13;1.13;;;3.30;99.90;;;;;;5107563;28;20195;-75
2020/12/12 08:58:33;;;;;;;2.38;2.20;;;3.40;99.90;;;;;;5091454;28;20188;-75
2020/12/12 09:01:12;;;;;;;1.50;1.50;;;3.60;99.90;;;;;;5109124;28;20175;-75
2020/12/12 09:04:00;;;;;;;1.35;0.93;;;3.70;99.90;;;;;;5110794;28;20171;-75
2020/12/12 09:06:30;;;;;;;0.13;0.13;;;3.80;99.90;;;;;;5112019;28;20218;-76
2020/12/12 09:09:21;;;;;;;0.70;0.70;;;3.80;99.90;;;;;;5110348;28;20198;-75
2020/12/12 09:12:01;;;;;;;1.50;1.50;;;3.80;99.90;;;;;;5110402;28;20170;-75
2020/12/12 09:14:29;;;;;;;0.40;0.40;;;3.80;99.90;;;;;;5111724;28;20163;-75
2020/12/12 09:17:01;;;;;;;0.35;0.35;;;3.80;99.90;;;;;;5110535;28;20195;-75
2020/12/12 09:19:29;;;;;;;1.70;1.60;;;3.80;99.90;;;;;;5111505;28;20170;-75
2020/12/12 09:21:57;;;;;;;0.35;0.35;;;3.80;99.90;;;;;;5111132;28;20187;-74
2020/12/12 09:24:24;;;;;;;2.40;2.13;;;3.80;99.90;;;;;;5110145;28;20167;-75
2020/12/12 09:26:56;;;;;;;2.08;1.27;;;3.80;99.90;;;;;;5110049;28;20191;-74
2020/12/12 09:29:23;;;;;;;3.65;3.20;;;3.90;99.90;;;;;;5091234;28;20199;-74
2020/12/12 09:31:54;;;;;;;0.75;0.75;;;4.00;99.90;;;;;;5091259;28;20153;-75
2020/12/12 09:34:21;;;;;;;0.30;0.30;;;4.00;99.90;;;;;;5091121;28;20182;-75
2020/12/12 09:36:51;;;;;;;1.60;1.55;;;4.10;99.90;;;;;;5089576;28;20211;-74
2020/12/12 09:39:17;;;;;;;1.70;1.60;;;4.10;99.90;;;;;;5098775;28;20188;-75
2020/12/12 09:41:43;;;;;;;2.90;2.70;;;4.20;99.90;;;;;;5090823;28;20230;-74
2020/12/12 09:44:09;;;;;;;0.95;0.95;;;4.30;99.90;;;;;;5090421;28;20161;-74
2020/12/12 09:46:35;;;;;;;0.20;0.20;;;4.30;99.90;;;;;;5090324;28;20234;-74
2020/12/12 09:49:01;;;;;;;7.28;2.85;;;4.40;99.90;;;;;;5089479;28;20480;-74
2020/12/12 09:51:27;;;;;;;0.40;0.40;;;4.40;99.90;;;;;;5090452;28;20152;-75
2020/12/12 09:53:53;;;;;;;1.90;1.80;;;4.40;99.90;;;;;;5106378;28;20189;-74
2020/12/12 09:56:20;;;;;;;1.13;1.13;;;4.50;99.90;;;;;;5110933;28;20191;-75
2020/12/12 09:58:46;;;;;;;1.48;1.38;;;4.40;99.90;;;;;;5110989;28;20164;-75
2020/12/12 10:01:14;;;;;;;1.67;1.55;;;4.30;99.90;;;;;;5110776;28;20187;-74
2020/12/12 10:03:41;;;;;;;1.17;1.17;;;4.40;99.90;;;;;;5110757;28;20167;-74
2020/12/12 10:06:08;;;;;;;0.60;0.60;;;4.30;99.90;;;;;;5110803;28;20270;-74
2020/12/12 10:08:34;;;;;;;6.65;1.05;;;4.30;99.90;;;;;;5110722;28;20197;-74
2020/12/12 10:11:00;;;;;;;0.45;0.45;;;4.20;99.90;;;;;;5104173;28;20179;-75
2020/12/12 10:13:26;;;;;;;0.73;0.73;;;4.30;99.90;;;;;;5109192;28;20185;-74
2020/12/12 10:15:52;;;;;;;0.68;0.68;;;4.30;99.90;;;;;;5110536;28;20214;-74
2020/12/12 10:18:18;;;;;;;0.55;0.55;;;4.20;99.90;;;;;;5110775;28;20219;-74
2020/12/12 10:20:44;;;;;;;0.77;0.77;;;4.20;99.90;;;;;;5110170;28;20217;-74
2020/12/12 10:23:09;;;;;;;0.80;0.80;;;4.10;99.90;;;;;;5109807;28;20171;-74
2020/12/12 10:25:35;;;;;;;0.70;0.70;;;4.10;99.90;;;;;;5108433;28;20168;-74
2020/12/12 10:28:01;;;;;;;1.10;1.05;;;4.10;99.90;;;;;;5097253;28;20195;-74
2020/12/12 10:30:27;;;;;;;0.52;0.52;;;4.10;99.90;;;;;;5090970;28;20211;-74
2020/12/12 10:32:53;;;;;;;0.75;0.75;;;4.10;99.90;;;;;;5108908;28;20680;-74
2020/12/12 10:35:19;;;;;;;0.20;0.20;;;4.10;99.90;;;;;;5110287;28;20588;-74
2020/12/12 10:37:45;;;;;;;0.70;0.70;;;4.10;99.90;;;;;;5108772;28;20162;-74
2020/12/12 10:40:15;;;;;;;0.80;0.80;;;4.10;99.90;;;;;;5094054;28;20239;-74
2020/12/12 10:42:41;;;;;;;0.80;0.80;;;4.10;99.90;;;;;;5088489;28;20199;-74
2020/12/12 10:45:08;;;;;;;0.63;0.63;;;4.20;99.90;;;;;;5087372;28;20171;-74
2020/12/12 10:47:34;;;;;;;0.10;0.10;;;4.30;99.90;;;;;;5088065;28;20168;-74
2020/12/12 10:50:01;;;;;;;0.20;0.20;;;4.40;99.90;;;;;;5089601;28;20190;-74
2020/12/12 10:52:27;;;;;;;0.20;0.20;;;4.50;99.90;;;;;;5089383;28;20187;-74
2020/12/12 10:54:53;;;;;;;0.20;0.20;;;4.60;99.90;;;;;;5088079;28;20182;-74
2020/12/12 10:57:20;;;;;;;0.82;0.82;;;4.60;99.90;;;;;;5089533;28;20183;-74
2020/12/12 10:59:46;;;;;;;0.30;0.30;;;4.60;99.90;;;;;;5089566;28;20307;-75
2020/12/12 11:02:13;;;;;;;0.90;0.90;;;4.60;99.90;;;;;;5108478;28;20198;-75
2020/12/12 11:04:43;;;;;;;1.35;1.25;;;4.50;99.90;;;;;;5109580;28;20182;-74
2020/12/12 11:07:10;;;;;;;0.90;0.90;;;4.50;99.90;;;;;;5109605;28;20163;-74
2020/12/12 11:09:37;;;;;;;1.52;1.45;;;4.50;99.90;;;;;;5108217;28;20191;-74
2020/12/12 11:12:03;;;;;;;0.38;0.38;;;4.40;99.90;;;;;;5108041;28;20229;-74
2020/12/12 11:14:32;;;;;;;1.60;1.60;;;4.50;99.90;;;;;;5108258;28;20163;-74
2020/12/12 11:17:00;;;;;;;1.27;1.25;;;4.70;99.90;;;;;;5108320;28;20163;-74
2020/12/12 11:19:26;;;;;;;0.55;0.55;;;4.60;99.90;;;;;;5102160;28;20238;-74
2020/12/12 11:21:53;;;;;;;0.77;0.77;;;4.60;99.90;;;;;;5107926;28;20717;-74
2020/12/12 11:24:19;;;;;;;1.52;0.88;;;4.50;99.90;;;;;;5109365;28;20534;-74
2020/12/12 11:26:45;;;;;;;0.75;0.75;;;4.50;99.90;;;;;;5109324;28;20159;-74
2020/12/12 11:29:13;;;;;;;0.20;0.20;;;4.50;99.90;;;;;;5107863;28;20191;-74
2020/12/12 11:31:41;;;;;;;1.20;1.20;;;4.60;99.90;;;;;;5109217;28;20183;-75
2020/12/12 11:34:14;;;;;;;1.83;1.73;;;4.60;99.90;;;;;;5109365;28;20147;-74
2020/12/12 11:39:30;;;;;;;0.10;0.10;;;4.60;99.90;;;;;;5102263;28;20255;-74
2020/12/12 11:43:00;;;;;;;0.65;0.65;;;4.50;99.90;;;;;;5108968;28;20236;-76
2020/12/12 11:47:29;;;;;;;0.82;0.82;;;4.30;99.90;;;;;;5117899;28;20182;-74
2020/12/12 11:49:55;;;;;;;1.35;0.70;;;4.10;99.90;;;;;;5109408;28;20155;-76
2020/12/12 11:52:21;;;;;;;3.47;3.25;;;4.20;99.90;;;;;;5107679;28;20191;-75
2020/12/12 11:54:49;;;;;;;0.85;0.85;;;4.30;99.90;;;;;;5109282;28;20152;-75
2020/12/12 11:57:15;;;;;;;0.57;0.57;;;4.30;99.90;;;;;;5107898;28;20160;-75
2020/12/12 11:59:44;;;;;;;0.30;0.30;;;4.40;99.90;;;;;;5111979;28;20159;-74
2020/12/12 12:02:10;;;;;;;3.50;2.35;;;4.50;99.90;;;;;;5111721;28;20687;-74
2020/12/12 12:04:36;;;;;;;2.47;2.28;;;4.40;99.90;;;;;;5113308;28;20217;-74
2020/12/12 12:07:03;;;;;;;1.58;1.55;;;4.40;99.90;;;;;;5113276;28;20160;-74
2020/12/12 12:09:53;;;;;;;0.30;0.30;;;4.10;99.90;;;;;;5112964;28;20202;-74
2020/12/12 12:12:15;;;;;;;0.55;0.55;;;4.00;99.90;;;;;;5112824;28;20199;-75
2020/12/12 12:14:41;;;;;;;0.75;0.75;;;4.10;99.90;;;;;;5113105;28;20156;-74
2020/12/12 12:17:06;;;;;;;1.60;1.50;;;4.10;99.90;;;;;;5111814;28;20190;-75
2020/12/12 12:19:32;;;;;;;0.40;0.40;;;4.30;99.90;;;;;;5112927;28;20166;-74
2020/12/12 12:21:58;;;;;;;1.48;1.48;;;4.40;99.90;;;;;;5111309;28;20216;-75
2020/12/12 12:24:25;;;;;;;0.20;0.20;;;4.40;99.90;;;;;;5112805;28;20187;-75
2020/12/12 12:26:51;;;;;;;0.50;0.50;;;4.50;99.90;;;;;;5111389;28;20165;-75
2020/12/12 12:29:19;;;;;;;0.95;0.95;;;4.40;99.90;;;;;;5092279;28;20184;-75
2020/12/12 12:31:47;;;;;;;0.93;0.93;;;4.50;99.90;;;;;;5092303;28;20195;-74
2020/12/12 12:34:14;;;;;;;0.60;0.60;;;4.40;99.90;;;;;;5107691;28;20175;-74
2020/12/12 12:36:41;;;;;;;0.68;0.68;;;4.10;99.90;;;;;;5107679;28;20175;-75
2020/12/12 12:39:08;;;;;;;0.65;0.65;;;4.20;99.90;;;;;;5092099;28;20164;-75
2020/12/12 12:41:35;;;;;;;0.50;0.50;;;4.20;99.90;;;;;;5105182;28;20227;-76
2020/12/12 12:44:02;;;;;;;0.25;0.25;;;4.20;99.90;;;;;;5112269;28;20183;-75
2020/12/12 12:46:30;;;;;;;0.75;0.75;;;4.20;99.90;;;;;;5111099;28;20628;-75
2020/12/12 12:48:58;;;;;;;0.95;0.95;;;4.30;99.90;;;;;;5109286;28;20207;-74
2020/12/12 12:51:24;;;;;;;1.52;1.50;;;4.30;99.90;;;;;;5107446;28;20172;-75
2020/12/12 12:53:50;;;;;;;0.20;0.20;;;4.40;99.90;;;;;;5106827;28;20163;-75
2020/12/12 12:56:25;;;;;;;0.20;0.20;;;4.40;99.90;;;;;;5112083;28;20168;-75
2020/12/12 12:58:53;;;;;;;0.38;0.38;;;4.30;99.90;;;;;;5104691;28;20182;-74
2020/12/12 13:01:20;;;;;;;1.55;1.45;;;4.40;99.90;;;;;;5112102;28;20156;-75
2020/12/12 13:03:47;;;;;;;1.02;1.00;;;4.40;99.90;;;;;;5099209;28;20224;-74
2020/12/12 13:06:27;;;;;;;0.60;0.60;;;4.40;99.90;;;;;;5107739;28;20183;-75
2020/12/12 13:08:56;;;;;;;0.57;0.55;;;4.40;99.90;;;;;;5096427;28;20191;-74
2020/12/12 13:11:24;;;;;;;0.77;0.77;;;4.40;99.90;;;;;;5101371;28;20156;-74